Time;durP1;ratioP1;P1;durP2;ratioP2;P2;SDS_P1;SDS_P2;PMS_P1;PMS_P2;Temp;Humidity;BMP_temperature;BMP_pressure;BME280_temperature;BME280_humidity;BME280_pressure;Samples;Min_cycle;Max_cycle;Signal;HPM_P1;HPM_P2
2021/06/08 00:01:17;;;;;;;22.30;17.35;;;16.70;99.90;;;;;;4994371;28;20030;-69
2021/06/08 00:03:43;;;;;;;19.60;16.40;;;16.70;99.90;;;;;;4990407;28;20047;-70
2021/06/08 00:06:09;;;;;;;21.27;16.90;;;16.70;99.90;;;;;;4993329;28;20096;-70
2021/06/08 00:08:34;;;;;;;20.65;16.27;;;16.70;99.90;;;;;;4993102;28;20030;-69
2021/06/08 00:11:00;;;;;;;17.33;15.45;;;16.70;99.90;;;;;;4993186;28;20054;-69
2021/06/08 00:13:28;;;;;;;20.27;15.40;;;16.70;99.90;;;;;;4990518;28;20037;-70
2021/06/08 00:15:53;;;;;;;16.02;14.32;;;16.70;99.90;;;;;;4995260;28;20033;-69
2021/06/08 00:18:19;;;;;;;19.05;14.93;;;16.70;99.90;;;;;;4990039;28;20086;-69
2021/06/08 00:20:45;;;;;;;19.10;15.85;;;16.80;99.90;;;;;;4998266;28;20057;-70
2021/06/08 00:23:12;;;;;;;17.67;14.85;;;16.80;99.90;;;;;;4990985;28;20022;-70
2021/06/08 00:25:40;;;;;;;17.60;14.73;;;16.80;99.90;;;;;;4995722;28;20034;-69
2021/06/08 00:28:09;;;;;;;17.05;15.05;;;16.80;99.90;;;;;;4997055;28;20034;-70
2021/06/08 00:30:36;;;;;;;17.65;15.38;;;16.80;99.90;;;;;;4994131;28;20029;-69
2021/06/08 00:33:01;;;;;;;25.63;15.43;;;16.80;99.90;;;;;;4979953;28;20027;-69
2021/06/08 00:35:30;;;;;;;17.27;15.05;;;16.80;99.90;;;;;;4990915;28;20452;-70
2021/06/08 00:37:57;;;;;;;17.73;14.82;;;16.90;99.90;;;;;;4992491;28;20053;-70
2021/06/08 00:40:28;;;;;;;18.55;15.00;;;16.80;99.90;;;;;;4991994;28;20113;-70
2021/06/08 00:42:56;;;;;;;24.50;15.13;;;16.80;99.90;;;;;;4995678;28;20068;-70
2021/06/08 00:45:22;;;;;;;19.13;15.73;;;16.90;99.90;;;;;;4984783;28;20275;-70
2021/06/08 00:47:50;;;;;;;18.23;14.63;;;16.90;99.90;;;;;;4990345;28;20042;-70
2021/06/08 00:50:16;;;;;;;18.67;15.13;;;16.90;99.90;;;;;;4982315;28;20041;-70
2021/06/08 00:52:44;;;;;;;19.13;15.25;;;16.90;99.90;;;;;;4991390;28;20041;-70
2021/06/08 00:55:15;;;;;;;16.92;13.90;;;16.90;99.90;;;;;;4989628;28;20044;-70
2021/06/08 00:57:41;;;;;;;17.70;14.43;;;17.00;99.90;;;;;;4998466;28;20031;-71
2021/06/08 01:00:07;;;;;;;17.88;14.82;;;17.00;99.90;;;;;;4974403;28;20054;-70
2021/06/08 01:02:35;;;;;;;15.57;13.48;;;17.00;99.90;;;;;;5004286;28;20058;-71
2021/06/08 01:05:04;;;;;;;19.77;14.93;;;17.00;99.90;;;;;;4989562;28;20384;-70
2021/06/08 01:07:33;;;;;;;16.40;14.25;;;17.00;99.90;;;;;;4993278;28;20073;-70
2021/06/08 01:09:59;;;;;;;20.65;15.43;;;17.00;99.90;;;;;;4988915;28;20091;-70
2021/06/08 01:12:25;;;;;;;17.60;14.23;;;17.00;99.90;;;;;;4991946;28;20038;-70
2021/06/08 01:14:51;;;;;;;18.35;14.95;;;17.00;99.90;;;;;;4992578;28;20026;-70
2021/06/08 01:17:17;;;;;;;17.48;14.73;;;17.00;99.90;;;;;;4992676;28;20033;-70
2021/06/08 01:19:43;;;;;;;17.42;14.50;;;17.10;99.90;;;;;;4994802;28;20036;-70
2021/06/08 01:22:09;;;;;;;18.70;14.43;;;17.10;99.90;;;;;;4996036;28;20036;-70
2021/06/08 01:24:34;;;;;;;21.75;15.73;;;17.00;99.90;;;;;;4985200;28;20030;-70
2021/06/08 01:27:02;;;;;;;18.73;14.77;;;17.00;99.90;;;;;;4996287;28;20107;-70
2021/06/08 01:29:30;;;;;;;21.20;15.77;;;17.00;99.90;;;;;;4990823;28;20073;-70
2021/06/08 01:31:58;;;;;;;17.65;15.45;;;17.10;99.90;;;;;;4977994;28;20056;-70
2021/06/08 01:34:24;;;;;;;19.55;14.57;;;17.00;99.90;;;;;;4988507;28;20367;-70
2021/06/08 01:36:50;;;;;;;15.80;13.25;;;17.00;99.90;;;;;;4992901;28;20022;-70
2021/06/08 01:39:18;;;;;;;19.30;14.50;;;17.10;99.90;;;;;;4973798;28;20034;-70
2021/06/08 01:41:49;;;;;;;17.48;14.73;;;17.00;99.90;;;;;;4992352;28;20033;-70
2021/06/08 01:44:17;;;;;;;17.67;14.63;;;17.10;99.90;;;;;;4995637;28;20025;-70
2021/06/08 01:46:50;;;;;;;17.67;14.68;;;17.10;99.90;;;;;;4997491;28;20034;-70
2021/06/08 01:49:16;;;;;;;18.23;14.65;;;17.10;99.90;;;;;;4990373;28;20045;-70
2021/06/08 01:51:44;;;;;;;19.10;15.35;;;17.10;99.90;;;;;;4995819;28;20031;-70
2021/06/08 01:54:31;;;;;;;19.08;15.13;;;17.00;99.90;;;;;;4990056;28;20042;-70
2021/06/08 01:57:06;;;;;;;20.63;14.10;;;17.00;99.90;;;;;;4992416;28;20022;-70
2021/06/08 01:59:38;;;;;;;18.02;14.15;;;17.10;99.90;;;;;;4992332;28;20034;-70
2021/06/08 02:02:25;;;;;;;15.52;13.25;;;17.00;99.90;;;;;;4994138;28;20471;-70
2021/06/08 02:05:38;;;;;;;17.75;14.55;;;17.10;99.90;;;;;;5005889;28;20019;-70
2021/06/08 02:08:34;;;;;;;14.93;13.32;;;17.10;99.90;;;;;;4961324;28;20046;-70
2021/06/08 02:11:05;;;;;;;19.50;16.20;;;17.10;99.90;;;;;;4991669;28;20111;-69
2021/06/08 02:13:42;;;;;;;17.08;14.30;;;17.00;99.90;;;;;;4990651;28;20460;-70
2021/06/08 02:16:28;;;;;;;16.38;14.30;;;17.10;99.90;;;;;;4990306;28;20038;-70
2021/06/08 02:18:56;;;;;;;17.02;13.65;;;17.10;99.90;;;;;;4991614;28;20102;-70
2021/06/08 02:21:26;;;;;;;17.10;13.52;;;17.10;99.90;;;;;;4980604;28;20026;-70
2021/06/08 02:23:52;;;;;;;17.33;14.75;;;17.10;99.90;;;;;;4990549;28;20453;-70
2021/06/08 02:26:24;;;;;;;19.60;14.77;;;17.10;99.90;;;;;;4993315;28;20044;-70
2021/06/08 02:28:52;;;;;;;16.50;14.32;;;17.10;99.90;;;;;;4984337;28;20094;-70
2021/06/08 02:31:20;;;;;;;18.40;15.82;;;17.00;99.90;;;;;;4984561;28;20050;-70
2021/06/08 02:33:49;;;;;;;21.15;16.13;;;17.10;99.90;;;;;;5001964;28;20512;-70
2021/06/08 02:36:17;;;;;;;18.73;14.82;;;17.00;99.90;;;;;;4978984;28;20084;-70
2021/06/08 02:38:43;;;;;;;16.65;14.50;;;17.00;99.90;;;;;;4997467;28;20049;-70
2021/06/08 02:41:11;;;;;;;16.25;13.13;;;17.10;99.90;;;;;;4992820;28;20443;-70
2021/06/08 02:43:39;;;;;;;16.08;13.45;;;17.10;99.90;;;;;;4996109;28;20038;-70
2021/06/08 02:46:08;;;;;;;17.63;14.27;;;17.10;99.90;;;;;;4982613;28;20507;-70
2021/06/08 02:48:36;;;;;;;15.48;13.73;;;17.00;99.90;;;;;;4996910;28;20036;-70
2021/06/08 02:51:02;;;;;;;15.70;13.18;;;17.10;99.90;;;;;;4999613;28;20029;-70
2021/06/08 02:53:28;;;;;;;15.45;13.25;;;17.10;99.90;;;;;;4998660;28;20112;-71
2021/06/08 02:55:53;;;;;;;18.42;15.32;;;17.10;99.90;;;;;;4984344;28;20037;-70
2021/06/08 02:58:21;;;;;;;15.85;13.98;;;17.00;99.90;;;;;;4995591;28;20040;-70
2021/06/08 03:00:47;;;;;;;19.83;14.68;;;17.10;99.90;;;;;;4992830;28;20029;-71
2021/06/08 03:03:19;;;;;;;22.83;14.93;;;17.10;99.90;;;;;;4999517;28;20049;-70
2021/06/08 03:05:49;;;;;;;;;;;17.10;99.90;;;;;;4991111;28;20038;-70
2021/06/08 03:08:23;;;;;;;18.75;15.55;;;17.00;99.90;;;;;;5008201;28;19910;-70
2021/06/08 03:10:50;;;;;;;19.08;15.15;;;17.00;99.90;;;;;;4994251;28;20077;-70
2021/06/08 03:13:16;;;;;;;20.70;15.70;;;17.00;99.90;;;;;;5006047;28;20034;-70
2021/06/08 03:15:53;;;;;;;17.90;14.82;;;17.00;99.90;;;;;;4981729;28;20031;-70
2021/06/08 03:18:22;;;;;;;21.83;15.60;;;17.00;99.90;;;;;;4995156;28;20036;-71
2021/06/08 03:20:51;;;;;;;19.33;15.60;;;17.00;99.90;;;;;;4980023;28;20717;-70
2021/06/08 03:23:21;;;;;;;18.27;14.82;;;17.00;99.90;;;;;;4957765;28;20428;-70
2021/06/08 03:25:46;;;;;;;19.08;15.30;;;17.00;99.90;;;;;;4976395;28;20145;-70
2021/06/08 03:28:15;;;;;;;17.75;15.07;;;17.00;99.90;;;;;;4996589;28;20109;-70
2021/06/08 03:30:46;;;;;;;16.75;14.25;;;17.00;99.90;;;;;;4984801;28;20468;-71
2021/06/08 03:33:12;;;;;;;18.70;14.93;;;17.00;99.90;;;;;;4990849;28;20034;-71
2021/06/08 03:35:37;;;;;;;18.75;15.70;;;17.10;99.90;;;;;;4995072;28;20093;-70
2021/06/08 03:38:03;;;;;;;18.73;15.68;;;17.10;99.90;;;;;;4975379;28;20149;-71
2021/06/08 03:40:31;;;;;;;15.68;14.00;;;17.00;99.90;;;;;;4971190;28;20142;-70
2021/06/08 03:42:59;;;;;;;16.63;14.00;;;17.10;99.90;;;;;;4971531;28;20040;-70
2021/06/08 03:45:24;;;;;;;17.85;15.15;;;17.10;99.90;;;;;;4970930;28;21986;-70
2021/06/08 03:47:53;;;;;;;18.00;15.20;;;17.10;99.90;;;;;;4969539;28;20038;-70
2021/06/08 03:50:20;;;;;;;18.83;14.45;;;17.00;99.90;;;;;;4976323;28;20030;-71
2021/06/08 03:52:51;;;;;;;21.65;15.32;;;17.10;99.90;;;;;;4987916;28;20038;-70
2021/06/08 03:55:24;;;;;;;17.15;14.85;;;17.10;99.90;;;;;;4975737;28;20696;-70
2021/06/08 03:57:52;;;;;;;18.27;14.57;;;17.10;99.90;;;;;;4995262;28;20042;-70
2021/06/08 04:00:20;;;;;;;15.88;13.80;;;17.10;99.90;;;;;;5004537;28;20023;-70
2021/06/08 04:02:46;;;;;;;17.67;14.80;;;17.10;99.90;;;;;;4975830;28;20812;-71
2021/06/08 04:05:12;;;;;;;16.05;13.75;;;17.10;99.90;;;;;;4977314;28;20053;-70
2021/06/08 04:07:44;;;;;;;18.73;15.13;;;17.20;99.90;;;;;;4977510;28;20039;-71
2021/06/08 04:10:14;;;;;;;16.10;14.43;;;17.20;99.90;;;;;;4991612;28;20037;-70
2021/06/08 04:12:39;;;;;;;15.80;13.98;;;17.20;99.90;;;;;;4961626;28;20129;-70
2021/06/08 04:15:06;;;;;;;17.90;13.82;;;17.20;99.90;;;;;;4986709;28;20137;-71
2021/06/08 04:17:32;;;;;;;16.67;14.07;;;17.20;99.90;;;;;;4977038;28;20153;-70
2021/06/08 04:19:59;;;;;;;15.50;13.07;;;17.20;99.90;;;;;;4977249;28;20068;-71
2021/06/08 04:22:31;;;;;;;14.52;13.00;;;17.20;99.90;;;;;;4987500;28;20018;-70
2021/06/08 04:24:59;;;;;;;;;;;17.30;99.90;;;;;;4989498;28;20113;-70
2021/06/08 04:27:25;;;;;;;16.98;13.52;;;17.20;99.90;;;;;;4990094;28;20464;-70
2021/06/08 04:29:53;;;;;;;18.45;14.77;;;17.20;99.90;;;;;;4969555;28;20035;-70
2021/06/08 04:32:19;;;;;;;17.25;15.27;;;17.20;99.90;;;;;;4975371;28;20026;-70
2021/06/08 04:34:54;;;;;;;19.80;15.60;;;17.30;99.90;;;;;;4987477;28;20045;-70
2021/06/08 04:37:20;;;;;;;18.85;14.85;;;17.30;99.90;;;;;;4987304;28;20073;-70
2021/06/08 04:39:50;;;;;;;17.60;14.57;;;17.30;99.90;;;;;;4993302;28;20018;-71
2021/06/08 04:42:16;;;;;;;17.58;15.00;;;17.30;99.90;;;;;;4993547;28;20038;-70
2021/06/08 04:44:51;;;;;;;16.35;14.02;;;17.30;99.90;;;;;;4996347;28;20058;-70
2021/06/08 04:47:17;;;;;;;19.67;13.75;;;17.40;99.90;;;;;;4995784;28;20033;-71
2021/06/08 04:49:43;;;;;;;16.38;14.60;;;17.40;99.90;;;;;;4988995;28;20061;-70
2021/06/08 04:52:09;;;;;;;18.00;14.55;;;17.50;99.90;;;;;;4969800;28;20460;-70
2021/06/08 04:54:41;;;;;;;16.65;14.90;;;17.50;99.90;;;;;;4981163;28;20153;-70
2021/06/08 04:57:07;;;;;;;15.20;13.60;;;17.50;99.90;;;;;;4986244;28;20030;-71
2021/06/08 05:00:01;;;;;;;16.70;13.98;;;17.50;99.90;;;;;;4975073;28;20059;-71
2021/06/08 05:02:39;;;;;;;17.83;13.80;;;17.50;99.90;;;;;;4997136;28;20069;-70
2021/06/08 05:05:25;;;;;;;20.05;14.20;;;17.50;99.90;;;;;;4988468;28;20626;-70
2021/06/08 05:08:04;;;;;;;16.60;14.13;;;17.50;99.90;;;;;;5000446;28;20076;-70
2021/06/08 05:10:29;;;;;;;15.57;13.85;;;17.60;99.90;;;;;;4995612;28;20536;-70
2021/06/08 05:12:58;;;;;;;15.45;13.68;;;17.50;99.90;;;;;;4991482;28;20026;-70
2021/06/08 05:15:26;;;;;;;19.05;14.23;;;17.60;99.90;;;;;;4986233;28;20034;-70
2021/06/08 05:17:51;;;;;;;16.20;14.13;;;17.60;99.90;;;;;;4962072;28;20035;-71
2021/06/08 05:20:19;;;;;;;16.00;13.90;;;17.60;99.90;;;;;;4986689;28;20043;-70
2021/06/08 05:22:48;;;;;;;16.45;13.57;;;17.60;99.90;;;;;;4986514;28;20068;-71
2021/06/08 05:25:13;;;;;;;15.82;14.18;;;17.70;99.90;;;;;;4994121;28;20030;-71
2021/06/08 05:27:41;;;;;;;15.93;12.82;;;17.70;99.90;;;;;;4990319;28;20026;-72
2021/06/08 05:30:10;;;;;;;18.10;14.50;;;17.70;99.90;;;;;;4988062;28;20031;-71
2021/06/08 05:32:40;;;;;;;14.95;13.45;;;17.70;99.90;;;;;;4974665;28;20038;-70
2021/06/08 05:35:09;;;;;;;14.90;13.20;;;17.80;99.90;;;;;;4974874;28;20424;-70
2021/06/08 05:37:40;;;;;;;16.75;14.25;;;17.80;99.90;;;;;;4993721;28;20804;-70
2021/06/08 05:40:06;;;;;;;15.85;14.25;;;17.90;99.90;;;;;;4976750;28;20026;-71
2021/06/08 05:42:32;;;;;;;15.02;13.45;;;17.80;99.90;;;;;;4975549;28;20033;-71
2021/06/08 05:45:01;;;;;;;16.80;14.85;;;17.80;99.90;;;;;;4990254;28;20035;-70
2021/06/08 05:47:26;;;;;;;18.88;16.27;;;17.90;99.90;;;;;;4973980;28;20109;-70
2021/06/08 05:49:55;;;;;;;16.30;14.60;;;17.90;99.90;;;;;;4978306;28;21028;-70
2021/06/08 05:52:23;;;;;;;17.90;14.40;;;18.00;99.90;;;;;;4994685;28;20022;-71
2021/06/08 05:54:48;;;;;;;18.75;14.75;;;18.00;99.90;;;;;;5004588;28;20058;-71
2021/06/08 05:57:16;;;;;;;16.30;14.02;;;18.00;99.90;;;;;;4977909;28;20030;-70
2021/06/08 05:59:42;;;;;;;18.80;15.23;;;18.00;99.90;;;;;;4977579;28;22196;-71
2021/06/08 06:02:07;;;;;;;16.98;15.18;;;18.10;99.90;;;;;;4987456;28;20042;-70
2021/06/08 06:04:36;;;;;;;16.13;14.35;;;18.10;99.90;;;;;;4989712;28;20046;-71
2021/06/08 06:07:02;;;;;;;17.25;14.20;;;18.20;99.90;;;;;;4973193;28;20057;-70
2021/06/08 06:09:27;;;;;;;16.75;14.57;;;18.20;99.90;;;;;;4994351;28;20469;-70
2021/06/08 06:11:55;;;;;;;15.68;13.63;;;18.20;99.90;;;;;;4989057;28;20039;-71
2021/06/08 06:14:26;;;;;;;17.48;14.32;;;18.20;99.90;;;;;;4978356;28;20147;-71
2021/06/08 06:16:56;;;;;;;17.45;15.55;;;18.20;99.90;;;;;;4990503;28;20038;-70
2021/06/08 06:19:27;;;;;;;17.50;14.65;;;18.20;99.90;;;;;;4980100;28;20018;-71
2021/06/08 06:21:56;;;;;;;17.77;15.88;;;18.20;99.90;;;;;;4982681;28;20023;-73
2021/06/08 06:24:27;;;;;;;15.32;13.55;;;18.20;99.90;;;;;;4992865;28;20039;-73
2021/06/08 06:26:57;;;;;;;16.98;15.18;;;18.20;99.90;;;;;;4997106;28;20026;-77
2021/06/08 06:29:26;;;;;;;16.30;14.60;;;18.20;99.90;;;;;;4991894;28;20097;-70
2021/06/08 06:31:55;;;;;;;16.13;14.38;;;18.20;99.90;;;;;;5011357;28;20100;-71
2021/06/08 06:34:26;;;;;;;18.17;15.50;;;18.30;99.90;;;;;;4990553;28;20069;-73
2021/06/08 06:36:57;;;;;;;18.85;15.13;;;18.20;99.90;;;;;;4995986;28;20038;-73
2021/06/08 06:39:30;;;;;;;18.17;14.80;;;18.20;99.90;;;;;;4993548;28;20038;-72
2021/06/08 06:42:02;;;;;;;17.85;15.40;;;18.20;99.90;;;;;;4980052;28;20180;-70
2021/06/08 06:44:28;;;;;;;18.10;15.35;;;18.20;99.90;;;;;;4994728;28;20025;-71
2021/06/08 06:46:54;;;;;;;16.75;15.02;;;18.20;99.90;;;;;;4981187;28;20046;-70
2021/06/08 06:49:23;;;;;;;16.98;14.32;;;18.10;99.90;;;;;;4995419;28;20117;-72
2021/06/08 06:51:49;;;;;;;17.20;15.10;;;18.10;99.90;;;;;;4980157;28;20472;-73
2021/06/08 06:54:17;;;;;;;18.17;15.40;;;18.10;99.90;;;;;;4978601;28;20041;-72
2021/06/08 06:56:44;;;;;;;16.27;14.38;;;18.10;99.90;;;;;;4981339;28;20042;-71
2021/06/08 06:59:12;;;;;;;17.63;15.30;;;18.10;99.90;;;;;;4994997;28;20026;-70
2021/06/08 07:01:41;;;;;;;18.08;15.30;;;18.10;99.90;;;;;;4996839;28;20601;-71
2021/06/08 07:04:09;;;;;;;15.40;13.25;;;18.10;99.90;;;;;;4983767;28;21956;-71
2021/06/08 07:06:35;;;;;;;17.23;14.48;;;18.10;99.90;;;;;;4980420;28;20129;-71
2021/06/08 07:09:03;;;;;;;15.15;13.55;;;18.10;99.90;;;;;;4996020;28;20160;-71
2021/06/08 07:11:31;;;;;;;15.48;13.35;;;18.20;99.90;;;;;;4996038;28;20038;-70
2021/06/08 07:14:00;;;;;;;16.75;15.00;;;18.20;99.90;;;;;;4987247;28;20375;-71
2021/06/08 07:16:28;;;;;;;18.67;14.63;;;18.20;99.90;;;;;;5003547;28;20034;-71
2021/06/08 07:18:54;;;;;;;16.15;14.45;;;18.20;99.90;;;;;;4991390;28;20113;-71
2021/06/08 07:21:21;;;;;;;17.08;14.85;;;18.20;99.90;;;;;;4964591;28;20129;-70
2021/06/08 07:23:53;;;;;;;16.27;14.57;;;18.20;99.90;;;;;;4996088;28;20625;-70
2021/06/08 07:26:26;;;;;;;17.90;15.25;;;18.20;99.90;;;;;;4980779;28;20116;-71
2021/06/08 07:28:58;;;;;;;16.20;14.60;;;18.20;99.90;;;;;;4995975;28;20041;-71
2021/06/08 07:31:50;;;;;;;18.08;14.45;;;18.20;99.90;;;;;;4986155;28;21169;-71
2021/06/08 07:34:50;;;;;;;15.80;14.13;;;18.20;99.90;;;;;;4979326;28;20074;-71
2021/06/08 07:37:23;;;;;;;15.25;13.38;;;18.20;99.90;;;;;;4969806;28;20042;-71
2021/06/08 07:40:01;;;;;;;16.17;13.52;;;18.20;99.90;;;;;;4993947;28;20019;-71
2021/06/08 07:42:39;;;;;;;15.60;14.00;;;18.20;99.90;;;;;;4986027;28;20114;-70
2021/06/08 07:45:06;;;;;;;16.70;14.10;;;18.20;99.90;;;;;;4979184;28;20519;-70
2021/06/08 07:47:32;;;;;;;17.17;14.30;;;18.20;99.90;;;;;;4980659;28;20034;-71
2021/06/08 07:49:58;;;;;;;15.55;13.82;;;18.20;99.90;;;;;;4979554;28;20053;-70
2021/06/08 07:52:24;;;;;;;14.85;13.25;;;18.20;99.90;;;;;;4978739;28;20030;-71
2021/06/08 07:54:55;;;;;;;16.23;14.00;;;18.30;99.90;;;;;;4981460;28;20064;-71
2021/06/08 07:57:25;;;;;;;16.95;14.15;;;18.30;99.90;;;;;;4978936;28;20112;-71
2021/06/08 07:59:53;;;;;;;14.02;12.63;;;18.30;99.90;;;;;;4983575;28;20126;-70
2021/06/08 08:02:22;;;;;;;14.95;12.77;;;18.30;99.90;;;;;;4996409;28;20048;-71
2021/06/08 08:04:52;;;;;;;15.73;14.13;;;18.30;99.90;;;;;;4989330;28;20061;-70
2021/06/08 08:07:24;;;;;;;15.48;13.88;;;18.30;99.90;;;;;;4985728;28;20093;-70
2021/06/08 08:09:51;;;;;;;15.45;13.85;;;18.30;99.90;;;;;;5001417;28;20266;-71
2021/06/08 08:12:16;;;;;;;15.43;13.80;;;18.40;99.90;;;;;;4994691;28;20092;-71
2021/06/08 08:14:46;;;;;;;15.20;13.70;;;18.40;99.90;;;;;;4984978;28;20030;-71
2021/06/08 08:17:12;;;;;;;17.02;13.60;;;18.40;99.90;;;;;;4977775;28;20041;-71
2021/06/08 08:19:41;;;;;;;15.48;13.88;;;18.40;99.90;;;;;;4976937;28;20030;-73
2021/06/08 08:22:09;;;;;;;14.38;12.90;;;18.40;99.90;;;;;;4985737;28;20491;-72
2021/06/08 08:24:35;;;;;;;16.13;13.77;;;18.40;99.90;;;;;;4988019;28;20460;-71
2021/06/08 08:27:05;;;;;;;14.48;13.07;;;18.40;99.90;;;;;;4987312;28;20050;-71
2021/06/08 08:29:37;;;;;;;14.65;13.15;;;18.50;99.90;;;;;;4986760;28;20031;-71
2021/06/08 08:32:03;;;;;;;14.35;12.93;;;18.40;99.90;;;;;;4992787;28;20108;-71
2021/06/08 08:34:29;;;;;;;13.38;11.98;;;18.50;99.90;;;;;;4985241;28;20062;-71
2021/06/08 08:37:00;;;;;;;15.90;14.30;;;18.60;99.90;;;;;;4996607;28;20061;-71
2021/06/08 08:39:26;;;;;;;14.70;13.20;;;18.70;99.90;;;;;;4993591;28;20027;-71
2021/06/08 08:41:55;;;;;;;14.18;12.77;;;18.70;99.90;;;;;;4989011;28;20035;-70
2021/06/08 08:44:20;;;;;;;15.70;13.85;;;18.80;99.90;;;;;;4995921;28;20064;-71
2021/06/08 08:46:50;;;;;;;14.13;12.63;;;18.80;99.90;;;;;;4993581;28;20546;-71
2021/06/08 08:49:18;;;;;;;14.38;12.98;;;18.90;99.90;;;;;;4990066;28;20092;-70
2021/06/08 08:51:44;;;;;;;16.80;15.00;;;19.00;99.90;;;;;;4991694;28;20026;-70
2021/06/08 08:54:11;;;;;;;16.67;14.73;;;19.10;99.90;;;;;;4986828;28;20113;-71
2021/06/08 08:56:39;;;;;;;14.20;12.70;;;19.10;99.90;;;;;;4993517;28;20026;-71
2021/06/08 08:59:11;;;;;;;14.90;13.40;;;19.20;99.90;;;;;;4994151;28;20031;-71
2021/06/08 09:01:37;;;;;;;;;;;19.30;99.90;;;;;;4995271;28;20080;-74
2021/06/08 09:04:04;;;;;;;16.42;14.73;;;19.20;99.90;;;;;;4986218;28;20366;-73
2021/06/08 09:06:30;;;;;;;18.05;16.15;;;19.30;99.90;;;;;;4995556;28;20026;-71
2021/06/08 09:08:58;;;;;;;16.35;14.80;;;19.40;99.90;;;;;;4986850;28;20029;-71
2021/06/08 09:11:24;;;;;;;15.05;13.65;;;19.40;99.90;;;;;;4988126;28;20045;-71
2021/06/08 09:13:52;;;;;;;16.05;14.02;;;19.50;99.90;;;;;;4978703;28;20031;-72
2021/06/08 09:16:22;;;;;;;17.75;14.43;;;19.60;99.90;;;;;;4986897;28;20030;-71
2021/06/08 09:18:47;;;;;;;16.30;13.85;;;19.70;99.90;;;;;;4996707;28;20025;-71
2021/06/08 09:21:21;;;;;;;15.95;14.35;;;19.70;99.90;;;;;;4989849;28;20026;-71
2021/06/08 09:23:49;;;;;;;15.77;14.02;;;19.70;99.90;;;;;;4992275;28;20025;-71
2021/06/08 09:26:18;;;;;;;15.80;14.10;;;19.80;99.90;;;;;;4995463;28;20229;-71
2021/06/08 09:28:44;;;;;;;17.35;14.32;;;19.90;99.90;;;;;;4994323;28;20034;-71
2021/06/08 09:31:23;;;;;;;14.43;12.82;;;19.90;99.90;;;;;;4988028;28;20045;-71
2021/06/08 09:33:57;;;;;;;14.65;13.23;;;20.00;99.90;;;;;;4986705;28;20026;-71
2021/06/08 09:36:24;;;;;;;14.55;13.15;;;20.00;99.90;;;;;;4990809;28;20097;-72
2021/06/08 09:38:58;;;;;;;14.95;13.48;;;20.10;99.90;;;;;;4984415;28;20665;-72
2021/06/08 09:41:34;;;;;;;14.32;12.95;;;20.10;99.90;;;;;;4983123;28;20026;-72
2021/06/08 09:44:04;;;;;;;15.70;14.00;;;20.20;99.90;;;;;;4991532;28;20026;-72
2021/06/08 09:46:54;;;;;;;14.40;12.85;;;20.30;99.90;;;;;;4986470;28;20030;-71
2021/06/08 09:49:35;;;;;;;15.80;13.88;;;20.30;99.90;;;;;;4991476;28;20035;-71
2021/06/08 09:52:08;;;;;;;14.40;13.00;;;20.30;99.90;;;;;;4988090;28;20092;-71
2021/06/08 09:54:34;;;;;;;15.70;14.10;;;20.40;99.90;;;;;;4973459;28;20375;-71
2021/06/08 09:57:38;;;;;;;14.80;13.30;;;20.50;99.90;;;;;;4984831;28;20099;-74
2021/06/08 10:00:08;;;;;;;16.38;13.65;;;20.60;99.90;;;;;;4897782;29;20060;-71
2021/06/08 10:02:48;;;;;;;15.32;13.75;;;20.70;99.90;;;;;;4970394;28;20066;-71
2021/06/08 10:05:19;;;;;;;16.83;14.10;;;20.70;99.90;;;;;;4985824;28;20056;-71
2021/06/08 10:07:46;;;;;;;15.80;14.20;;;20.80;99.90;;;;;;4987852;28;20503;-72
2021/06/08 10:10:22;;;;;;;15.13;13.73;;;20.90;99.90;;;;;;4988292;28;20050;-71
2021/06/08 10:12:59;;;;;;;15.52;13.98;;;21.10;99.90;;;;;;5003125;28;20041;-71
2021/06/08 10:15:34;;;;;;;16.08;14.57;;;21.20;99.90;;;;;;4988765;28;20463;-71
2021/06/08 10:18:09;;;;;;;15.95;14.40;;;21.30;99.90;;;;;;4987068;28;20403;-71
2021/06/08 10:20:46;;;;;;;15.70;14.13;;;21.50;99.90;;;;;;4995266;28;20034;-71
2021/06/08 10:23:29;;;;;;;15.15;13.63;;;21.60;99.90;;;;;;4987240;28;20034;-71
2021/06/08 10:25:56;;;;;;;16.42;14.38;;;21.80;99.90;;;;;;4995651;28;20063;-71
2021/06/08 10:28:26;;;;;;;16.15;14.45;;;22.00;99.90;;;;;;4989211;28;20034;-71
2021/06/08 10:30:55;;;;;;;17.63;15.73;;;22.10;99.90;;;;;;4994702;28;20062;-71
2021/06/08 10:33:23;;;;;;;17.02;14.57;;;22.30;99.90;;;;;;4988529;28;20030;-71
2021/06/08 10:35:52;;;;;;;16.38;14.77;;;22.40;99.90;;;;;;4991899;28;20026;-71
2021/06/08 10:38:18;;;;;;;15.25;13.75;;;22.60;99.90;;;;;;4987357;28;20030;-71
2021/06/08 10:40:48;;;;;;;16.08;14.48;;;22.70;99.90;;;;;;4992586;28;20034;-71
2021/06/08 10:43:17;;;;;;;14.60;13.13;;;22.80;99.90;;;;;;4984339;28;20503;-72
2021/06/08 10:45:43;;;;;;;14.60;13.10;;;22.80;99.90;;;;;;4993536;28;20523;-72
2021/06/08 10:48:29;;;;;;;14.82;13.30;;;22.80;99.90;;;;;;4991876;28;20117;-71
2021/06/08 10:51:16;;;;;;;14.18;12.75;;;22.80;99.90;;;;;;4983490;28;20461;-73
2021/06/08 10:53:51;;;;;;;23.42;21.00;;;22.80;99.90;;;;;;4997946;28;20124;-73
2021/06/08 10:56:31;;;;;;;14.25;12.82;;;22.80;99.90;;;;;;4997285;28;20030;-72
2021/06/08 10:58:59;;;;;;;13.88;12.48;;;22.70;99.90;;;;;;4986599;28;20045;-72
2021/06/08 11:01:31;;;;;;;14.20;12.50;;;22.80;99.90;;;;;;5003693;28;20027;-72
2021/06/08 11:03:59;;;;;;;15.25;13.63;;;22.70;99.90;;;;;;4993930;28;20047;-72
2021/06/08 11:06:48;;;;;;;14.02;12.52;;;22.70;99.90;;;;;;5000440;28;20030;-72
2021/06/08 11:09:17;;;;;;;13.82;12.50;;;22.80;99.90;;;;;;4992089;28;20027;-72
2021/06/08 11:11:57;;;;;;;13.77;12.05;;;22.70;99.90;;;;;;4990198;28;20401;-71
2021/06/08 11:15:14;;;;;;;13.38;12.02;;;22.70;99.90;;;;;;4972398;28;20034;-72
2021/06/08 11:17:37;;;;;;;14.85;12.30;;;22.70;99.90;;;;;;4982749;28;20070;-72
2021/06/08 11:20:14;;;;;;;14.80;12.73;;;22.60;99.90;;;;;;4991543;28;20034;-72
2021/06/08 11:22:40;;;;;;;14.43;12.93;;;22.60;99.90;;;;;;4989958;28;20358;-72
2021/06/08 11:25:29;;;;;;;14.05;12.65;;;22.60;99.90;;;;;;4992108;28;20033;-72
2021/06/08 11:28:22;;;;;;;14.90;12.65;;;22.50;99.90;;;;;;4987955;28;20060;-72
2021/06/08 11:30:58;;;;;;;13.43;11.95;;;22.50;99.90;;;;;;4996582;28;20035;-72
2021/06/08 11:33:33;;;;;;;12.32;11.05;;;22.40;99.90;;;;;;4990114;28;20030;-72
2021/06/08 11:36:02;;;;;;;13.70;12.25;;;22.50;99.90;;;;;;4990829;28;20033;-72
2021/06/08 11:38:36;;;;;;;29.13;26.33;;;22.50;99.90;;;;;;4995669;28;20468;-72
2021/06/08 11:41:07;;;;;;;14.70;13.30;;;22.50;99.90;;;;;;5003848;28;20044;-74
2021/06/08 11:43:35;;;;;;;;;;;22.50;99.90;;;;;;5009874;28;20023;-72
2021/06/08 11:46:06;;;;;;;15.20;13.35;;;22.60;99.90;;;;;;4992292;28;19917;-72
2021/06/08 11:48:35;;;;;;;14.73;12.85;;;22.60;99.90;;;;;;4995791;28;20092;-72
2021/06/08 11:51:19;;;;;;;14.15;12.85;;;22.70;99.90;;;;;;4989085;28;20034;-72
2021/06/08 11:54:08;;;;;;;13.98;12.57;;;22.70;99.90;;;;;;4988660;28;20027;-72
2021/06/08 11:56:44;;;;;;;12.77;11.45;;;22.80;99.90;;;;;;4988413;28;20034;-72
2021/06/08 11:59:15;;;;;;;12.82;11.48;;;22.70;99.90;;;;;;5005929;28;20028;-72
2021/06/08 12:01:44;;;;;;;12.13;10.97;;;22.60;99.90;;;;;;4997164;28;20114;-72
2021/06/08 12:04:12;;;;;;;12.80;11.43;;;22.60;99.90;;;;;;4995226;28;20038;-72
2021/06/08 12:07:06;;;;;;;12.60;11.25;;;22.50;99.90;;;;;;4988730;28;20037;-72
2021/06/08 12:09:34;;;;;;;12.18;10.98;;;22.50;99.90;;;;;;4987579;28;20152;-72
2021/06/08 12:12:09;;;;;;;12.30;11.10;;;22.40;99.90;;;;;;4994882;28;20023;-72
2021/06/08 12:14:36;;;;;;;13.63;11.43;;;22.40;99.90;;;;;;4986789;28;20362;-71
2021/06/08 12:17:02;;;;;;;12.25;11.02;;;22.40;99.90;;;;;;4987650;28;20369;-72
2021/06/08 12:19:32;;;;;;;12.63;11.35;;;22.40;99.90;;;;;;4988825;28;20026;-72
2021/06/08 12:21:58;;;;;;;12.57;11.27;;;22.40;99.90;;;;;;4989229;28;20061;-72
2021/06/08 12:24:24;;;;;;;12.18;10.98;;;22.50;99.90;;;;;;4992563;28;20022;-72
2021/06/08 12:26:52;;;;;;;12.10;10.90;;;22.50;99.90;;;;;;4994136;28;20041;-72
2021/06/08 12:29:20;;;;;;;12.43;11.13;;;22.50;99.90;;;;;;4985962;28;20031;-72
2021/06/08 12:31:56;;;;;;;13.40;11.35;;;22.60;99.90;;;;;;4989732;28;20351;-73
2021/06/08 12:34:24;;;;;;;11.93;10.82;;;22.70;99.90;;;;;;4992414;28;20077;-73
2021/06/08 12:36:52;;;;;;;12.02;10.82;;;22.70;99.90;;;;;;4988090;28;20053;-75
2021/06/08 12:39:29;;;;;;;14.30;10.57;;;22.80;99.90;;;;;;4977146;28;20026;-72
2021/06/08 12:42:18;;;;;;;11.57;10.38;;;22.80;99.90;;;;;;4993074;28;20407;-72
2021/06/08 12:44:47;;;;;;;11.88;10.27;;;22.90;99.90;;;;;;4995455;28;20476;-72